CHERITA, SEDOKA AND LIMERICK

Folder Contents

Author's Full Portfolio

Title Comments Views Updated Posted
1 DRIFTING LOST OLD SAN JUAN 26 2021/05/10 2 days ago
2 FROM SPRING GARDEN "EL" STOP 33 2021/04/28 1 week ago
3 ENDLESS UTOPIA 33 2021/04/27 2 weeks ago
4 BURRITO IN ERASERHOOD 35 2021/04/25 2 weeks ago
5 DO NOT ENTER! 35 2021/04/23 2 weeks ago
6 TURKEY PLAYING CHICKEN 42 2021/04/21 3 weeks ago
7 MUSHED CORN 38 2021/04/19 3 weeks ago
8 COMMENTARY ON THE WALL 106 2021/04/09 4 weeks ago
9 OLD FASHIONED BARREL BOLT LOCK 2 108 2021/03/16 8 weeks ago
10 FOLLOWING A SHADOW 59 2021/03/14 8 weeks ago
11 VIBES DID GATHER 60 2021/03/12 8 weeks ago
12 UNKEPT PROMISES 82 2021/03/10 8 weeks ago
13 5 PAINFUL MINUTES 2 119 2021/03/07 9 weeks ago
14 DOGGED DETERMINATION 2 99 2021/03/05 9 weeks ago
15 HAMBURG CENTRAL STATION 61 2021/02/27 10 weeks ago
16 GIGGLING AT ABSURDITY 179 2021/01/23 15 weeks ago
17 THOSE DECISIONS NOT SO WISE 87 2021/01/08 17 weeks ago
18 OVERRATED 2 111 2021/01/08 17 weeks ago
19 SALUTING WARRIORS 157 2021/01/04 18 weeks ago
20 ICARUS FOOLISHLY FANCIED 1 103 2020/12/27 19 weeks ago
21 WOKE FOLK 1 87 2020/12/24 19 weeks ago
22 I CONTAIN MULTITUDES 82 2020/12/20 20 weeks ago
23 KRAMPUS POEM 119 2020/12/14 21 weeks ago
24 SINISTER DIMPLES (cherita) 107 2020/12/08 22 weeks ago
25 EDDINGTON STATION 1 116 2020/12/04 22 weeks ago
26 VINCENT'S LOST EAR 116 2020/12/04 22 weeks ago
27 FAKE GODS 256 2020/11/28 23 weeks ago
28 PHILLY IN PINK HAZE 1 163 2020/11/27 23 weeks ago
29 DAMN PAPARAZZI 107 2020/11/25 24 weeks ago
30 WISTFUL WINKS 97 2020/11/19 24 weeks ago
31 COPACETIC MUSES 2 109 2020/11/10 26 weeks ago
32 UTOPIAN FANTASY 100 2020/11/03 27 weeks ago
33 SACRED COW 2 105 2020/11/02 27 weeks ago
34 DOMESTICATED HEADHUNTER 4 245 2020/11/16 27 weeks ago
35 GHOSTS POPULATE THE ATTIC 2 134 2020/10/29 27 weeks ago
36 JETTISON THE MILK 112 2020/10/24 28 weeks ago
37 PERPLEXED BY CYNICISM 2 172 2020/10/16 29 weeks ago
38 AESTHETIC VALUES 2 154 2020/10/14 30 weeks ago
39 PERFUMED SCENT 6 138 2020/10/12 30 weeks ago
40 ROUTINE HUMDRUM 2 146 2020/10/05 31 weeks ago
41 INDESTRUCTIBLE 121 2020/10/05 31 weeks ago
42 TRAMPOLINE 4 352 2020/10/01 31 weeks ago
43 DANCING RAINDROPS 2 111 2020/09/21 33 weeks ago
44 PARADISE ALLUDED 2 117 2020/09/20 33 weeks ago
45 NAMELESS LADY 2 115 2020/09/17 33 weeks ago
46 SKA BEAT 2 115 2020/09/16 34 weeks ago
47 CRUEL JOKE 2 113 2020/09/15 34 weeks ago
48 LOMBARDI'S BLEMISH 2 128 2020/09/12 34 weeks ago
49 SILENCE WHISTLES 1 102 2020/09/07 35 weeks ago
50 IRISHED UP JAVA 2 127 2020/09/03 35 weeks ago
51 MY OWN PRIVATE MARDI GRAS 239 2020/07/29 40 weeks ago
52 7 BUCKS IT IS 2 115 2020/07/25 41 weeks ago
53 SPIES LIKE US 136 2020/07/23 41 weeks ago
54 BATTERY ON ZERO 4 132 2020/07/23 41 weeks ago
55 SPLITTING AN ATOM 121 2020/07/21 42 weeks ago
56 WHO HID THE REMOTE 113 2020/07/20 42 weeks ago
57 OF PANIC AND YEARNING 4 123 2020/07/15 42 weeks ago
58 DEFEND THE NIGHT 134 2020/06/15 47 weeks ago
59 INCANDESCENT RUBIES 2 143 2020/06/13 47 weeks ago
60 STEP ABOVE 4 133 2020/06/11 47 weeks ago
61 ELUDES THE NET 4 164 2020/06/08 48 weeks ago
62 CONSPIRACY 2 131 2020/06/06 48 weeks ago
63 BATTERY ACID 144 2020/06/03 49 weeks ago
64 CALL TO ARMS 2 134 2020/06/02 49 weeks ago
65 WHIMSICAL ALARM 141 2020/06/01 49 weeks ago
66 FINAL FRONTIER 2 131 2020/05/31 49 weeks ago
67 ELASTIC FIGURINES 162 2020/05/30 49 weeks ago
68 SLOW TRICKLE 2 133 2020/05/30 49 weeks ago
69 WOUNDS OF A TORN HEART 123 2020/05/26 50 weeks ago
70 NO-THINGNESS 4 147 2020/05/25 50 weeks ago
71 CAMOUFLAGE SLEEPING BAG 9 135 2020/05/24 50 weeks ago
72 MY JAMAICAN FANTASY 126 2020/05/21 50 weeks ago
73 FIRING SQUAD 2 126 2020/05/20 51 weeks ago
74 ENDLESS UTOPIAN DREAMS 140 2020/05/19 51 weeks ago
75 UNOBTRUSIVE REFLEX 3 157 2020/05/17 51 weeks ago
76 WAYLAY THE NEW DAY 8 190 2020/05/17 51 weeks ago
77 SIMILES OF GODDESSES 2 233 2020/05/16 51 weeks ago
78 DELUSIVE GOLD CARD 1 135 2020/05/15 51 weeks ago
79 FAKE I.D. 2 205 2020/05/13 51 weeks ago
80 PECULIAR RHYTHM 133 2020/05/12 1 year ago
81 OBSCENE ODES TO ISIS 2 532 2020/05/11 1 year ago
82 TOO COOL MORNING 4 203 2020/05/10 1 year ago
83 ALCHEMIST'S POTION 151 2020/05/05 1 year ago
84 CONTROLLED CHAOS IN MY HEART 170 2020/05/04 1 year ago
85 BLIND CONFORMISTS 4 144 2020/05/03 1 year ago
86 HUMAN AURAS 155 2020/05/02 1 year ago
87 COMPLETELY ENVELOPED 2 138 2020/05/02 1 year ago
88 LUMINATED LAMP SHADE 162 2020/05/01 1 year ago
89 ANALYST NAMED FREUD 4 232 2020/04/28 1 year ago
90 A ONCE RURAL ROAD 2 144 2020/04/28 1 year ago
91 WALKING THE DOG 159 2020/04/24 1 year ago
92 CARTWHEELING TO THE GRAVE 167 2020/04/23 1 year ago
93 MOUNTAIN MUD 2 152 2020/04/21 1 year ago
94 SLAIN BY THE MOB 151 2020/04/19 1 year ago
95 GILDED IN GOLD 4 284 2020/04/18 1 year ago
96 ZODIACS OF THEORY 4 167 2020/04/15 1 year ago
97 NOW IS THE ONLY TIME 136 2020/04/13 1 year ago
98 ORISON CHANTED 2 147 2020/04/11 1 year ago
99 SPITTING CRISP JEWELS 538 2020/04/10 1 year ago
100 DECADENCE PERSISTS 2 147 2020/04/08 1 year ago
101 CADENCE OF MOLIERÉ 152 2020/04/06 1 year ago
102 NORSE DEITIES 142 2020/04/04 1 year ago
103 WILD BILL IS SHOT 154 2020/04/01 1 year ago
104 PSALMS ORATED 2 141 2020/03/27 1 year ago
105 EXORCISM OF SOUL 2 145 2020/03/23 1 year ago
106 BROKEN GLASS INFERNO 157 2020/03/22 1 year ago
107 DISCRIMINATORY COLORS 2 165 2020/03/22 1 year ago
108 DANCE OF COYOTES 2 176 2020/03/21 1 year ago
109 WORDS MYSTIQUE 2 185 2020/03/21 1 year ago
110 COMMA 147 2020/02/28 1 year ago
111 PISS POOR COMMUNIQUÉ 4 198 2020/02/28 1 year ago
112 EMPTY POUCH 210 2020/02/26 1 year ago
113 CURIOUS BYSTANDER 209 2020/02/23 1 year ago
114 CUPID RHYMES WITH STUPID 4 248 2020/02/22 1 year ago
115 WINES OF GALAXIES 2 200 2020/02/21 1 year ago
116 BILINGUAL SPLENDOR 2 228 2020/02/19 1 year ago
117 ECSTATIC WORDS 2 187 2020/02/18 1 year ago
118 TWISTED MUSTACHE 212 2020/02/09 1 year ago
119 I WANTED TO READ WHITMAN 6 281 2020/02/08 1 year ago
120 RAINY MORNING DAWN 4 222 2020/02/07 1 year ago
121 A BLANK PAGE 2 223 2020/02/06 1 year ago
122 LATEST, STUPID MEME 176 2020/02/04 1 year ago
123 WROTE POEMS TO GET LAID 172 2020/02/04 1 year ago
124 JETTISONED FROM THE PEDESTAL 2 175 2020/02/02 1 year ago
125 WALTZ OVER BROKEN GLASS 180 2020/02/01 1 year ago
126 ENDLESSLY CASCADE 227 2020/02/01 1 year ago
127 WARNING SIGNS 2 190 2020/01/30 1 year ago
128 ANSWERS SOUGHT 171 2020/01/29 1 year ago
129 WRITTEN BY SCHOLARS 218 2020/01/27 1 year ago
130 VISIONARY POETS 166 2020/01/27 1 year ago
131 YOU MUST BE SHROOMIN' 550 2020/01/24 1 year ago
132 IGUANA RAIN 162 2020/01/22 1 year ago
133 A MERE DUSTING 161 2020/01/20 1 year ago
134 JEJUNE YOUNGSTER 176 2020/01/19 1 year ago
135 AUBURN FOX 185 2020/01/18 1 year ago
136 PIGEONS PLAYING CHICKEN 4 217 2020/01/17 1 year ago
137 SINFULLY DELISH 2 541 2020/01/17 1 year ago
138 I NEED TO LEARN 5 203 2020/01/10 1 year ago
139 FANCIED MEESELF A POET 2 216 2020/01/08 1 year ago
140 AUTHOR OF THIS GRAFFITI 289 2020/01/04 1 year ago
141 LATEST TREND 210 2020/01/04 1 year ago
142 RAIN DELAY 204 2020/01/03 1 year ago
143 SUDDENLY WORDS DON'T FLOW 230 2020/01/01 1 year ago
144 BYPASSING THE SCHUYLKILL 2 200 2019/12/31 1 year ago
145 TARNISHING TUNDRA 203 2019/12/22 1 year ago
146 COOL DECEMBER AIR 222 2019/12/18 1 year ago
147 VIKING NIGHT 216 2019/12/17 1 year ago
148 URBAN BLIGHT 291 2019/12/11 1 year ago
149 BUILT IN A DAY 218 2019/12/03 1 year ago
150 LEON TROTSKY 420 2019/12/03 1 year ago
151 MODICUM OF HOPE 252 2019/12/01 1 year ago
152 NORTH STAR BAR 197 2019/11/28 1 year ago
153 DEMONIC SOUNDS 249 2019/11/24 1 year ago
154 HEAD OVER HEELS 231 2019/11/21 1 year ago
155 TRASH PICKER 235 2019/11/20 1 year ago
156 BODY COUNT 546 2020/01/27 1 year ago
157 FURNISHED APARTMENT 240 2019/11/17 1 year ago
158 CURRENT ORBIT 2 264 2019/11/14 1 year ago
159 MEMPHIS MINNIE 440 2019/11/13 1 year ago
160 TREASURE CHEST 2 260 2019/11/12 1 year ago
161 HELL'S BELLS 233 2019/11/11 1 year ago
162 PUSSY RIOT BADGE 330 2019/11/09 1 year ago
163 SELF MADE PEDESTAL 2 397 2019/11/08 1 year ago
164 WISE AMONG US 237 2019/11/04 1 year ago
165 DAMN ROOSTER 246 2019/11/03 1 year ago
166 ENDLESS IMAGES 2 286 2019/11/03 1 year ago
167 NORTH PHILADELPHIA STATION 2 265 2019/11/02 1 year ago
168 ENOUGH CLICHÉ 4 1,129 2019/11/01 1 year ago
169 EXCELLENT MISERY 2 1,138 2019/10/31 1 year ago
170 STREET LAMP GLOWING 237 2019/10/30 1 year ago
171 SURREAL COMEDY 246 2019/10/27 1 year ago
172 NEW WORLD OUT OF ORDER 224 2019/10/23 1 year ago
173 APOLITICAL CREATIVITY 2 219 2019/10/22 1 year ago
174 BEER COASTER 275 2019/10/21 1 year ago
175 BOUND & GAGGED 218 2019/10/20 1 year ago
176 DRINK WITH BUKOWSKI 213 2019/10/18 1 year ago
177 FALSAMUNDO! 400 2019/10/18 1 year ago
178 TRUE TREASURE 2 299 2019/10/18 1 year ago
179 CYNICISM MET WITH SCORN 2 935 2019/10/18 1 year ago
180 GOING TO NEW ORLEANS 407 2019/10/18 1 year ago
181 LASS FROM MANHATTAN 2 323 2019/10/18 1 year ago
182 MEGAN'S GOLDEN BOOT 2 984 2019/10/18 1 year ago
183 BEASTLY BUT BEAUTIFUL (limerick) 556 2019/10/18 1 year ago
184 MAGICAL PILL 324 2019/10/18 1 year ago
185 MEANINGLESS JOB 342 2019/10/26 1 year ago
186 LADIES GARMENTS 279 2019/10/18 1 year ago
187 DUDE (LIMERICK) 2 361 2019/10/18 1 year ago
188 LIMERICKS ARE FINE 3 293 2019/10/18 1 year ago